Leduc, Canada
Current Conditions -  °F | °C
As of 5:00 AM on Friday 28 Nov 2014 (Local Time) from CYEG Reporting Station
Light Snow Light Snow  
Wind Chill: -21°   Ceiling: 4000
Heat Index: -4°   Visibility: 8mi
Dew Point: -11°   Wind: 10mph
Humidity: 71%   Direction: 10°N
Pressure: 29.8"   Gusts: NA
Location:  53.27°N, 113.53°W
Report Text: CYEG 281200Z 01009KT 8SM -SN SCT024 OVC040 M20/M24 A2980 RMK SC3SC5 SLP157
Loading
Personal Weather Stations






























Interactive Weather Map New forecast layout! Learn more

10-Day Weather Forecast

Advertisements
Track Severe Weather on mobile